Time;durP1;ratioP1;P1;durP2;ratioP2;P2;SDS_P1;SDS_P2;PMS_P1;PMS_P2;Temp;Humidity;BMP_temperature;BMP_pressure;BME280_temperature;BME280_humidity;BME280_pressure;Samples;Min_cycle;Max_cycle;Signal;HPM_P1;HPM_P2
2022/06/01 00:00:51;;;;;;;7.05;3.87;;;;;;;19.23;54.18;99424.41;4447509;32;35321;-65
2022/06/01 00:03:19;;;;;;;6.20;3.80;;;;;;;19.22;54.25;99422.69;4452080;32;33171;-63
2022/06/01 00:05:46;;;;;;;6.62;4.55;;;;;;;19.21;54.26;99409.31;4450710;32;34624;-67
2022/06/01 00:08:14;;;;;;;7.25;3.70;;;;;;;19.31;53.85;99421.63;4451423;32;33820;-67
2022/06/01 00:10:41;;;;;;;6.00;3.83;;;;;;;19.19;53.99;99420.34;4451474;32;33766;-64
2022/06/01 00:13:09;;;;;;;7.28;4.00;;;;;;;19.11;54.05;99412.25;4449973;32;33597;-65
2022/06/01 00:15:37;;;;;;;7.53;4.40;;;;;;;19.15;53.90;99413.59;4443964;32;34733;-66
2022/06/01 00:18:05;;;;;;;6.60;3.95;;;;;;;19.14;53.80;99413.78;4448011;32;34512;-65
2022/06/01 00:20:32;;;;;;;7.30;3.97;;;;;;;19.11;54.10;99411.41;4450679;32;33584;-64
2022/06/01 00:23:00;;;;;;;5.72;3.90;;;;;;;19.11;54.17;99414.97;4447358;32;33660;-64
2022/06/01 00:25:28;;;;;;;6.18;3.87;;;;;;;19.04;54.48;99414.84;4445678;32;30864;-63
2022/06/01 00:27:56;;;;;;;7.62;4.35;;;;;;;19.06;54.53;99407.34;4445872;32;34338;-65
2022/06/01 00:30:24;;;;;;;8.35;4.80;;;;;;;19.13;54.28;99412.06;4447899;32;35350;-65
2022/06/01 00:32:52;;;;;;;7.50;4.78;;;;;;;19.12;54.17;99413.09;4449822;32;33462;-68
2022/06/01 00:35:22;;;;;;;6.15;4.30;;;;;;;18.94;54.53;99408.78;4448384;32;34818;-66
2022/06/01 00:37:50;;;;;;;7.97;4.15;;;;;;;18.76;54.87;99402.75;4440968;32;34088;-67
2022/06/01 00:40:20;;;;;;;6.87;4.78;;;;;;;18.68;55.15;99402.75;4447556;32;33901;-64
2022/06/01 00:42:50;;;;;;;9.52;5.22;;;;;;;18.63;55.11;99401.41;4450109;32;32581;-63
2022/06/01 00:45:21;;;;;;;6.62;4.57;;;;;;;18.65;55.11;99397.66;4445439;32;34274;-65
2022/06/01 00:47:49;;;;;;;7.22;3.95;;;;;;;18.75;54.84;99391.06;4443947;32;33083;-63
2022/06/01 00:50:32;;;;;;;6.57;3.97;;;;;;;18.78;54.44;99396.16;4440827;32;34161;-63
2022/06/01 00:53:04;;;;;;;7.65;4.72;;;;;;;18.74;54.55;99392.06;4450246;32;33813;-65
2022/06/01 00:55:39;;;;;;;6.03;4.18;;;;;;;18.68;54.54;99387.31;4446898;32;34820;-62
2022/06/01 00:58:12;;;;;;;8.13;4.00;;;;;;;18.89;54.04;99396.78;4449426;32;34114;-64
2022/06/01 01:00:41;;;;;;;10.75;4.90;;;;;;;18.87;53.93;99396.94;4450172;32;32626;-65
2022/06/01 01:03:10;;;;;;;7.87;4.97;;;;;;;18.77;54.05;99396.31;4450551;32;33427;-63
2022/06/01 01:05:44;;;;;;;7.35;4.85;;;;;;;18.72;53.76;99396.84;4451376;32;33607;-65
2022/06/01 01:08:12;;;;;;;7.03;4.60;;;;;;;18.79;53.31;99392.41;4451200;32;33787;-64
2022/06/01 01:10:40;;;;;;;7.62;4.70;;;;;;;18.77;53.25;99393.59;4448911;32;33694;-64
2022/06/01 01:13:10;;;;;;;7.62;4.72;;;;;;;18.68;53.42;99387.31;4449618;32;33196;-66
2022/06/01 01:15:55;;;;;;;7.85;4.85;;;;;;;18.61;53.75;99403.44;4448417;32;34209;-65
2022/06/01 01:18:26;;;;;;;8.33;5.57;;;;;;;18.21;55.42;99400.88;4437875;32;33905;-65
2022/06/01 01:21:13;;;;;;;7.85;5.20;;;;;;;18.36;54.47;99397.28;4449896;32;35513;-65
2022/06/01 01:23:53;;;;;;;7.18;5.00;;;;;;;18.26;54.98;99409.31;4447502;32;34187;-63
2022/06/01 01:26:22;;;;;;;7.85;5.10;;;;;;;18.36;55.12;99399.13;4448015;32;35087;-64
2022/06/01 01:28:50;;;;;;;8.73;5.80;;;;;;;18.30;55.45;99395.25;4442663;32;35156;-63
2022/06/01 01:31:20;;;;;;;6.87;4.78;;;;;;;18.27;55.91;99395.59;4444369;32;34049;-64
2022/06/01 01:33:50;;;;;;;8.13;5.37;;;;;;;18.29;55.95;99390.84;4450383;32;34358;-63
2022/06/01 01:36:22;;;;;;;8.50;5.32;;;;;;;18.31;55.96;99393.38;4450935;32;35158;-63
2022/06/01 01:39:09;;;;;;;8.85;5.68;;;;;;;18.40;55.68;99392.34;4439590;32;33623;-64
2022/06/01 01:41:58;;;;;;;7.53;5.10;;;;;;;18.42;55.61;99395.72;4436399;32;33393;-64
2022/06/01 01:44:44;;;;;;;8.00;5.97;;;;;;;18.52;55.26;99387.38;4449727;32;33233;-64
2022/06/01 01:47:12;;;;;;;7.50;5.15;;;;;;;18.46;55.51;99394.38;4448793;32;33797;-66
2022/06/01 01:49:40;;;;;;;9.18;6.03;;;;;;;18.49;55.47;99387.72;4453465;32;34302;-66
2022/06/01 01:52:11;;;;;;;7.20;5.43;;;;;;;18.53;55.50;99387.22;4451050;32;34887;-63
2022/06/01 01:54:52;;;;;;;8.82;6.12;;;;;;;18.55;55.57;99382.47;4448925;32;33774;-61
2022/06/01 01:57:31;;;;;;;7.87;5.70;;;;;;;18.61;55.59;99386.34;4452370;32;34975;-63
2022/06/01 02:00:03;;;;;;;9.05;5.43;;;;;;;18.58;55.61;99376.69;4445322;32;34294;-64
2022/06/01 02:02:39;;;;;;;8.30;5.60;;;;;;;18.55;55.57;99385.16;4442397;32;35000;-63
2022/06/01 02:08:17;;;;;;;8.75;5.47;;;;;;;18.71;55.29;99386.97;4448609;32;34170;-66
2022/06/01 02:13:32;;;;;;;9.10;4.78;;;;;;;18.65;55.42;99371.44;4449260;32;33590;-64
2022/06/01 02:16:01;;;;;;;9.73;5.95;;;;;;;18.70;55.35;99373.59;4448854;32;34001;-65
2022/06/01 02:18:33;;;;;;;10.10;6.85;;;;;;;18.51;56.06;99372.16;4447422;32;34472;-65
2022/06/01 02:21:04;;;;;;;9.18;5.70;;;;;;;18.77;55.63;99371.91;4448476;32;34777;-66
2022/06/01 02:23:32;;;;;;;9.95;5.75;;;;;;;18.77;55.83;99372.75;4446545;32;33632;-66
2022/06/01 02:26:01;;;;;;;8.77;5.82;;;;;;;18.87;55.45;99375.25;4449148;32;34169;-65
2022/06/01 02:28:29;;;;;;;9.05;5.85;;;;;;;18.86;55.56;99370.84;4443406;32;34837;-66
2022/06/01 02:30:57;;;;;;;9.48;6.37;;;;;;;18.88;55.47;99373.41;4450352;32;34778;-66
2022/06/01 02:33:27;;;;;;;8.98;6.68;;;;;;;18.86;55.63;99379.00;4448013;32;34091;-65
2022/06/01 02:35:58;;;;;;;10.98;6.30;;;;;;;18.92;55.55;99386.41;4446890;32;33602;-64
2022/06/01 02:38:31;;;;;;;9.07;6.28;;;;;;;19.01;55.38;99384.50;4450402;32;34110;-65
2022/06/01 02:41:00;;;;;;;11.30;5.55;;;;;;;18.92;55.84;99380.16;4446777;32;33795;-65
2022/06/01 02:43:28;;;;;;;9.90;6.40;;;;;;;18.96;55.82;99376.06;4447739;32;34132;-65
2022/06/01 02:45:56;;;;;;;11.52;7.20;;;;;;;18.96;56.30;99382.31;4448765;32;33503;-66
2022/06/01 02:48:25;;;;;;;10.13;6.75;;;;;;;19.08;56.20;99377.34;4448839;32;35804;-65
2022/06/01 02:50:53;;;;;;;10.95;6.28;;;;;;;19.14;55.94;99370.38;4449913;32;32715;-66
2022/06/01 02:53:20;;;;;;;9.77;6.62;;;;;;;19.13;56.18;99374.94;4449931;32;35059;-64
2022/06/01 02:55:48;;;;;;;8.50;6.22;;;;;;;18.95;56.87;99385.22;4442725;32;32961;-65
2022/06/01 02:58:16;;;;;;;10.18;6.10;;;;;;;19.05;56.60;99381.25;4449497;32;33865;-63
2022/06/01 03:00:43;;;;;;;9.55;5.87;;;;;;;18.99;56.94;99381.13;4448182;32;33927;-65
2022/06/01 03:03:11;;;;;;;9.05;5.50;;;;;;;18.94;56.96;99378.09;4448544;32;33688;-64
2022/06/01 03:05:40;;;;;;;10.63;6.30;;;;;;;18.97;56.86;99378.59;4448469;32;34068;-67
2022/06/01 03:08:09;;;;;;;8.60;5.80;;;;;;;18.89;56.85;99377.78;4449431;32;34165;-66
2022/06/01 03:10:37;;;;;;;9.80;5.57;;;;;;;19.20;55.78;99375.09;4448946;32;32751;-66
2022/06/01 03:13:23;;;;;;;10.98;6.10;;;;;;;19.19;55.91;99370.66;4448550;32;35021;-66
2022/06/01 03:15:52;;;;;;;8.40;5.50;;;;;;;19.26;55.85;99368.91;4449039;32;33390;-66
2022/06/01 03:18:20;;;;;;;9.38;5.95;;;;;;;19.37;55.38;99357.66;4447214;32;34418;-66
2022/06/01 03:20:48;;;;;;;8.88;6.37;;;;;;;19.35;55.67;99361.56;4449246;32;35170;-65
2022/06/01 03:23:19;;;;;;;9.93;6.70;;;;;;;19.41;55.81;99366.28;4447877;32;33577;-66
2022/06/01 03:25:46;;;;;;;11.32;7.10;;;;;;;19.40;56.28;99360.00;4447749;32;32905;-67
2022/06/01 03:28:15;;;;;;;12.57;8.05;;;;;;;19.52;56.40;99352.31;4449049;32;32962;-66
2022/06/01 03:30:43;;;;;;;13.93;8.70;;;;;;;19.58;56.68;99356.97;4449168;32;34111;-67
2022/06/01 03:33:13;;;;;;;12.00;8.50;;;;;;;19.66;56.82;99375.13;4445818;32;35187;-66
2022/06/01 03:35:41;;;;;;;13.05;8.45;;;;;;;19.74;56.99;99389.47;4449830;32;34478;-67
2022/06/01 03:38:09;;;;;;;11.25;7.72;;;;;;;18.95;59.51;99431.31;4445674;32;33731;-65
2022/06/01 03:40:37;;;;;;;13.77;9.82;;;;;;;18.80;60.48;99442.88;4449343;32;34095;-65
2022/06/01 03:43:06;;;;;;;24.37;14.77;;;;;;;18.68;61.44;99438.81;4450006;32;33448;-68
2022/06/01 03:48:22;;;;;;;31.98;21.52;;;;;;;19.15;63.15;99440.72;4439308;32;34707;-66
2022/06/01 03:50:51;;;;;;;32.38;20.83;;;;;;;18.94;65.37;99449.47;4448739;32;34833;-67
2022/06/01 03:53:19;;;;;;;32.33;21.75;;;;;;;19.23;64.94;99445.25;4445520;32;33687;-65
2022/06/01 03:55:47;;;;;;;29.85;20.85;;;;;;;19.44;64.42;99450.06;4449108;32;33335;-66
2022/06/01 03:58:17;;;;;;;34.90;22.35;;;;;;;19.45;64.26;99447.16;4447361;32;33608;-65
2022/06/01 04:00:45;;;;;;;31.25;19.62;;;;;;;19.48;64.44;99440.53;4445252;32;33151;-64
2022/06/01 04:03:13;;;;;;;31.92;20.45;;;;;;;19.70;63.70;99428.84;4434275;32;34760;-65
2022/06/01 04:05:42;;;;;;;30.55;19.83;;;;;;;19.68;63.86;99424.66;4445408;32;34192;-66
2022/06/01 04:08:09;;;;;;;26.87;18.98;;;;;;;19.66;63.73;99429.41;4447120;32;33834;-66
2022/06/01 04:10:39;;;;;;;30.00;19.55;;;;;;;19.94;62.76;99435.97;4449175;32;33970;-65
2022/06/01 04:13:06;;;;;;;29.02;20.20;;;;;;;20.10;62.25;99434.16;4444419;32;32890;-65
2022/06/01 04:15:34;;;;;;;30.98;20.12;;;;;;;20.12;62.29;99438.34;4448647;32;33411;-65
2022/06/01 04:18:02;;;;;;;31.70;20.77;;;;;;;20.30;61.61;99445.34;4449417;32;33770;-65
2022/06/01 04:20:30;;;;;;;29.10;19.65;;;;;;;20.19;61.92;99438.47;4448636;32;34083;-65
2022/06/01 04:23:00;;;;;;;29.45;20.48;;;;;;;20.36;61.70;99434.59;4446992;32;33971;-66
2022/06/01 04:25:29;;;;;;;27.30;18.67;;;;;;;20.39;61.66;99446.97;4444302;32;32713;-65
2022/06/01 04:27:57;;;;;;;30.58;20.27;;;;;;;20.50;61.22;99440.22;4449555;32;34763;-65
2022/06/01 04:30:25;;;;;;;28.67;19.80;;;;;;;20.51;61.30;99445.47;4449854;32;33848;-66
2022/06/01 04:32:53;;;;;;;29.05;21.10;;;;;;;20.20;62.61;99446.44;4449716;32;33671;-64
2022/06/01 04:35:22;;;;;;;32.60;20.75;;;;;;;20.48;61.76;99449.41;4445259;32;33211;-66
2022/06/01 04:37:49;;;;;;;30.88;20.35;;;;;;;20.52;61.71;99447.19;4416396;32;32552;-66
2022/06/01 04:40:21;;;;;;;27.92;18.40;;;;;;;20.61;61.89;99446.06;4413191;32;33560;-66
2022/06/01 04:42:49;;;;;;;28.30;18.80;;;;;;;20.67;61.33;99445.34;4405910;32;35024;-65
2022/06/01 04:45:17;;;;;;;27.62;17.92;;;;;;;20.64;61.49;99448.44;4418173;32;32168;-66
2022/06/01 04:47:45;;;;;;;28.15;18.90;;;;;;;20.79;61.30;99442.13;4418680;32;34868;-65
2022/06/01 04:50:13;;;;;;;28.23;18.08;;;;;;;20.83;61.27;99433.38;4418360;32;33969;-68
2022/06/01 04:52:40;;;;;;;26.85;18.42;;;;;;;20.77;61.40;99436.03;4415887;32;33811;-65
2022/06/01 04:55:08;;;;;;;28.87;19.17;;;;;;;20.88;61.10;99435.56;4412205;32;34417;-66
2022/06/01 04:57:37;;;;;;;34.47;20.55;;;;;;;20.94;60.98;99445.69;4415729;32;32407;-68
2022/06/01 05:00:05;;;;;;;27.75;19.42;;;;;;;21.02;60.81;99442.00;4417666;32;33963;-67
2022/06/01 05:02:33;;;;;;;32.67;20.30;;;;;;;20.97;61.37;99442.59;4416242;32;35038;-66
2022/06/01 05:05:01;;;;;;;29.00;18.15;;;;;;;21.15;61.35;99437.59;4417581;32;32459;-69
2022/06/01 05:07:29;;;;;;;27.77;18.08;;;;;;;21.33;61.20;99434.44;4417817;32;32884;-68
2022/06/01 05:09:56;;;;;;;24.70;17.02;;;;;;;20.82;62.44;99433.59;4410768;32;33834;-67
2022/06/01 05:12:24;;;;;;;28.35;18.87;;;;;;;21.06;61.53;99441.47;4420316;32;34097;-70
2022/06/01 05:14:51;;;;;;;23.92;15.15;;;;;;;21.24;61.31;99451.09;4419172;32;33216;-67
2022/06/01 05:17:19;;;;;;;22.00;15.85;;;;;;;20.33;62.88;99456.69;4418543;32;33852;-66
2022/06/01 05:19:47;;;;;;;20.90;13.95;;;;;;;20.81;61.46;99459.13;4418547;32;34097;-66
2022/06/01 05:22:14;;;;;;;22.27;13.77;;;;;;;20.91;61.02;99457.78;4418619;32;33595;-67
2022/06/01 05:24:42;;;;;;;19.52;13.07;;;;;;;21.02;60.71;99455.62;4406515;32;32373;-66
2022/06/01 05:27:09;;;;;;;17.75;11.63;;;;;;;21.07;60.55;99466.78;4420933;32;34756;-66
2022/06/01 05:29:37;;;;;;;16.25;11.48;;;;;;;20.55;62.19;99462.28;4418869;32;33073;-67
2022/06/01 05:32:06;;;;;;;14.60;9.57;;;;;;;20.41;63.00;99470.19;4418935;32;34112;-67
2022/06/01 05:34:33;;;;;;;13.95;8.93;;;;;;;20.25;63.78;99481.22;4419563;32;33447;-67
2022/06/01 05:37:01;;;;;;;14.15;9.27;;;;;;;20.59;62.07;99479.91;4440936;32;32493;-68
2022/06/01 05:39:29;;;;;;;11.82;7.68;;;;;;;19.88;63.62;99477.44;4448715;32;32688;-67
2022/06/01 05:41:56;;;;;;;15.32;8.25;;;;;;;20.27;63.25;99486.47;4450133;32;33816;-67
2022/06/01 05:44:30;;;;;;;10.10;6.72;;;;;;;20.50;62.38;99489.16;4451438;32;31958;-67
2022/06/01 05:46:59;;;;;;;12.27;7.55;;;;;;;20.62;61.82;99490.41;4450128;32;33730;-68
2022/06/01 05:49:27;;;;;;;12.30;8.73;;;;;;;20.61;62.33;99488.72;4448706;32;34017;-67
2022/06/01 05:51:55;;;;;;;16.40;7.93;;;;;;;20.25;62.99;99501.06;4444098;32;34667;-67
2022/06/01 05:54:23;;;;;;;13.23;8.10;;;;;;;20.24;63.23;99499.38;4440310;32;33595;-67
2022/06/01 05:56:50;;;;;;;10.90;7.50;;;;;;;20.27;63.10;99498.19;4451294;32;33291;-68
2022/06/01 05:59:18;;;;;;;12.15;8.40;;;;;;;20.39;62.85;99507.59;4452033;32;33912;-67
2022/06/01 06:01:46;;;;;;;11.65;7.47;;;;;;;19.95;64.23;99504.72;4452944;32;32662;-67
2022/06/01 06:04:13;;;;;;;12.10;7.65;;;;;;;20.19;63.51;99509.12;4451126;32;32914;-67
2022/06/01 06:06:43;;;;;;;12.75;8.13;;;;;;;19.85;64.83;99512.28;4451927;32;33657;-66
2022/06/01 06:09:10;;;;;;;13.02;8.43;;;;;;;20.11;63.56;99503.75;4453002;32;35158;-68
2022/06/01 06:11:39;;;;;;;11.20;7.60;;;;;;;20.20;63.64;99505.37;4452037;32;34622;-66
2022/06/01 06:14:07;;;;;;;12.55;7.57;;;;;;;20.61;62.37;99502.31;4449958;32;33511;-69
2022/06/01 06:16:38;;;;;;;10.82;8.23;;;;;;;19.98;64.39;99509.81;4438015;32;33782;-67
2022/06/01 06:19:06;;;;;;;12.13;8.35;;;;;;;20.20;64.21;99506.22;4438437;32;34962;-67
2022/06/01 06:21:33;;;;;;;11.50;8.77;;;;;;;20.16;64.50;99499.47;4452273;32;35474;-67
2022/06/01 06:24:14;;;;;;;13.85;9.18;;;;;;;20.32;63.73;99505.78;4450439;32;33167;-67
2022/06/01 06:26:45;;;;;;;11.05;8.07;;;;;;;20.20;64.04;99521.69;4451072;32;32833;-66
2022/06/01 06:29:15;;;;;;;11.20;8.10;;;;;;;19.93;65.60;99512.19;4453173;32;33095;-66
2022/06/01 06:31:43;;;;;;;14.68;8.50;;;;;;;19.83;65.36;99519.75;4451064;32;34716;-68
2022/06/01 06:34:15;;;;;;;14.18;8.88;;;;;;;19.93;64.73;99523.06;4452367;32;34290;-67
2022/06/01 06:36:44;;;;;;;13.25;8.63;;;;;;;20.14;64.14;99525.12;4451868;32;32581;-66
2022/06/01 06:39:13;;;;;;;13.45;8.75;;;;;;;19.93;64.53;99528.50;4451715;32;34934;-66
2022/06/01 06:41:41;;;;;;;15.77;8.25;;;;;;;19.99;64.17;99534.06;4448409;32;33423;-67
2022/06/01 06:44:08;;;;;;;12.50;8.13;;;;;;;19.62;65.54;99531.22;4453274;32;33349;-68
2022/06/01 06:46:36;;;;;;;14.40;9.18;;;;;;;19.61;65.67;99538.50;4449630;32;33440;-67
2022/06/01 06:49:04;;;;;;;11.95;8.40;;;;;;;20.09;64.31;99538.41;4453347;32;35004;-67
2022/06/01 06:51:36;;;;;;;10.82;8.57;;;;;;;19.92;65.35;99549.38;4452260;32;34146;-68
2022/06/01 06:54:04;;;;;;;13.77;8.07;;;;;;;19.57;66.17;99541.75;4452000;32;33612;-68
2022/06/01 06:56:31;;;;;;;12.82;8.30;;;;;;;19.74;65.41;99540.66;4448020;32;33336;-67
2022/06/01 06:58:59;;;;;;;15.43;9.77;;;;;;;20.29;64.26;99539.62;4449633;32;34857;-67
2022/06/01 07:01:27;;;;;;;14.52;8.75;;;;;;;19.47;66.37;99542.81;4452731;32;34999;-69
2022/06/01 07:03:55;;;;;;;15.55;8.40;;;;;;;19.96;65.21;99545.28;4452867;32;33683;-69
2022/06/01 07:06:24;;;;;;;11.12;8.40;;;;;;;20.43;63.82;99546.97;4451941;32;33640;-65
2022/06/01 07:08:53;;;;;;;12.30;8.02;;;;;;;20.33;63.90;99550.97;4448039;32;34686;-66
2022/06/01 07:11:22;;;;;;;11.93;8.32;;;;;;;20.36;64.65;99556.03;4451293;32;33927;-66
2022/06/01 07:13:50;;;;;;;13.27;8.00;;;;;;;20.81;63.28;99562.47;4452342;32;32031;-66
2022/06/01 07:16:20;;;;;;;10.15;7.90;;;;;;;20.76;62.48;99563.00;4450858;32;34715;-65
2022/06/01 07:18:50;;;;;;;10.50;7.07;;;;;;;20.44;63.91;99564.97;4450968;32;34024;-66
2022/06/01 07:21:19;;;;;;;12.95;6.93;;;;;;;20.38;63.73;99575.72;4452251;32;32909;-65
2022/06/01 07:23:47;;;;;;;9.25;6.40;;;;;;;20.60;63.23;99572.16;4442042;32;33530;-65
2022/06/01 07:26:20;;;;;;;8.75;5.75;;;;;;;20.92;62.00;99573.72;4442253;32;34688;-65
2022/06/01 07:28:48;;;;;;;8.93;5.87;;;;;;;21.16;61.15;99564.47;4452203;32;33561;-64
2022/06/01 07:31:17;;;;;;;8.20;5.18;;;;;;;21.08;61.19;99564.53;4447408;32;113329;-66
2022/06/01 07:33:46;;;;;;;6.82;4.97;;;;;;;21.45;60.41;99557.34;4449741;32;33069;-67
2022/06/01 07:36:17;;;;;;;7.72;5.05;;;;;;;21.01;61.38;99562.78;4452127;32;35019;-66
2022/06/01 07:44:18;;;;;;;7.45;4.70;;;;;;;21.68;59.66;99564.56;4451326;32;33076;-64
2022/06/01 07:46:46;;;;;;;7.35;4.68;;;;;;;22.05;57.90;99560.78;4451392;32;33941;-65
2022/06/01 07:49:15;;;;;;;8.18;4.50;;;;;;;22.34;57.54;99559.84;4450314;32;34824;-67
2022/06/01 07:52:06;;;;;;;7.62;4.22;;;;;;;21.81;58.91;99567.44;4451957;32;33724;-66
2022/06/01 07:54:39;;;;;;;7.45;4.15;;;;;;;22.23;56.88;99574.00;4448417;32;32373;-67
2022/06/01 07:57:06;;;;;;;6.70;3.30;;;;;;;21.89;56.84;99575.47;4450334;32;32559;-68
2022/06/01 07:59:36;;;;;;;6.57;3.85;;;;;;;21.95;57.51;99573.87;4451230;32;33006;-68
2022/06/01 08:02:09;;;;;;;7.93;3.20;;;;;;;21.99;57.98;99575.16;4449904;32;33879;-69
2022/06/01 08:04:38;;;;;;;7.43;3.83;;;;;;;21.78;58.73;99574.09;4449667;32;34441;-65
2022/06/01 08:07:09;;;;;;;6.18;3.80;;;;;;;21.80;59.12;99579.38;4452742;32;34730;-67
2022/06/01 08:09:36;;;;;;;7.50;3.78;;;;;;;21.76;58.70;99580.78;4451716;32;34931;-66
2022/06/01 08:14:51;;;;;;;6.97;3.87;;;;;;;21.33;59.04;99586.91;4450568;32;33424;-67
2022/06/01 08:17:18;;;;;;;6.62;3.90;;;;;;;22.08;56.98;99587.63;4452085;32;33459;-66
2022/06/01 08:19:46;;;;;;;5.35;3.28;;;;;;;21.98;57.89;99585.22;4449241;32;35097;-66
2022/06/01 08:22:15;;;;;;;5.93;3.50;;;;;;;22.23;56.72;99583.00;4451095;32;33508;-66
2022/06/01 08:24:43;;;;;;;6.80;3.95;;;;;;;22.26;56.12;99588.09;4451278;32;33503;-67
2022/06/01 08:27:11;;;;;;;9.50;3.53;;;;;;;22.42;55.19;99581.53;4451173;32;33503;-66
2022/06/01 08:29:38;;;;;;;5.55;3.35;;;;;;;22.15;56.57;99590.44;4452101;32;34054;-67
2022/06/01 08:32:07;;;;;;;5.40;2.97;;;;;;;22.65;55.54;99592.22;4445679;32;34087;-67
2022/06/01 08:34:35;;;;;;;5.62;3.28;;;;;;;22.67;55.61;99598.34;4451435;32;33373;-68
2022/06/01 08:37:03;;;;;;;6.47;4.45;;;;;;;22.38;57.06;99602.06;4451998;32;33627;-69
2022/06/01 08:39:32;;;;;;;5.28;3.40;;;;;;;22.19;55.86;99600.81;4449962;32;34071;-68
2022/06/01 08:42:01;;;;;;;6.10;3.72;;;;;;;22.49;55.14;99601.50;4444894;32;34015;-69
2022/06/01 08:44:34;;;;;;;6.55;3.62;;;;;;;21.96;56.66;99600.06;4452470;32;32715;-67
2022/06/01 08:47:06;;;;;;;11.27;4.70;;;;;;;22.26;56.13;99606.31;4451531;32;32352;-66
2022/06/01 08:49:36;;;;;;;6.47;3.75;;;;;;;22.28;56.80;99602.38;4449952;32;34058;-66
2022/06/01 08:52:04;;;;;;;6.70;4.00;;;;;;;22.12;55.70;99607.16;4444694;32;34572;-65
2022/06/01 08:54:32;;;;;;;6.20;3.67;;;;;;;22.12;55.99;99608.03;4450719;32;34114;-66
2022/06/01 08:57:04;;;;;;;5.85;3.50;;;;;;;22.39;54.55;99609.19;4450786;32;32594;-66
2022/06/01 08:59:48;;;;;;;6.68;3.55;;;;;;;22.83;53.67;99604.56;4451788;32;33801;-65
2022/06/01 09:02:22;;;;;;;5.03;3.25;;;;;;;22.87;52.56;99597.66;4435977;32;33492;-65
2022/06/01 09:04:56;;;;;;;6.15;3.50;;;;;;;22.82;53.40;99608.31;4447228;32;33359;-65
2022/06/01 09:07:29;;;;;;;9.38;3.67;;;;;;;22.91;53.21;99613.41;4445531;32;32207;-66
2022/06/01 09:10:35;;;;;;;5.12;3.03;;;;;;;23.25;51.98;99609.09;4451410;32;34120;-67
2022/06/01 09:13:14;;;;;;;5.78;2.87;;;;;;;23.02;52.36;99620.28;4443114;32;32715;-65
2022/06/01 09:15:47;;;;;;;5.55;3.00;;;;;;;22.94;51.63;99620.41;4449700;32;31963;-65
2022/06/01 09:18:17;;;;;;;5.15;2.87;;;;;;;23.13;51.48;99616.97;4452059;32;35157;-65
2022/06/01 09:23:31;;;;;;;5.65;2.12;;;;;;;23.52;49.64;99626.47;4450862;32;32713;-66
2022/06/01 09:25:59;;;;;;;4.30;2.62;;;;;;;23.55;49.35;99608.84;4452077;32;33529;-66
2022/06/01 09:28:28;;;;;;;5.15;2.83;;;;;;;23.59;48.50;99612.84;4447194;32;34638;-66
2022/06/01 09:31:03;;;;;;;4.43;2.20;;;;;;;23.64;48.81;99619.41;4452638;32;32613;-66
2022/06/01 09:33:32;;;;;;;;;;;;;;;24.04;48.51;99616.00;4450272;32;33902;-66
2022/06/01 09:36:08;;;;;;;4.65;2.20;;;;;;;24.14;45.91;99620.06;4453660;32;32966;-67
2022/06/01 09:38:41;;;;;;;3.87;2.10;;;;;;;24.24;46.81;99616.94;4452980;32;32301;-67
2022/06/01 09:41:23;;;;;;;4.15;2.25;;;;;;;24.48;46.80;99618.25;4452395;32;34081;-66
2022/06/01 09:44:00;;;;;;;4.07;2.20;;;;;;;24.77;46.68;99629.88;4450534;32;33196;-67
2022/06/01 09:46:35;;;;;;;4.07;2.72;;;;;;;24.43;45.26;99625.41;4452167;32;33823;-67
2022/06/01 09:49:29;;;;;;;4.47;2.20;;;;;;;24.52;46.08;99629.63;4449444;32;33938;-67
2022/06/01 09:52:06;;;;;;;4.93;2.30;;;;;;;24.55;45.35;99623.75;4437816;32;33883;-67
2022/06/01 09:54:38;;;;;;;5.32;2.03;;;;;;;24.59;45.62;99620.41;4451953;32;34792;-67
2022/06/01 09:57:29;;;;;;;3.42;1.98;;;;;;;24.03;44.80;99615.16;4452253;32;33932;-71
2022/06/01 10:06:24;;;;;;;3.65;2.00;;;;;;;25.25;42.24;99624.19;4449937;32;34829;-66
2022/06/01 10:09:10;;;;;;;4.50;2.20;;;;;;;25.53;42.05;99616.56;4438531;32;32885;-66
2022/06/01 10:11:45;;;;;;;4.18;2.15;;;;;;;25.89;41.52;99617.94;4447416;32;34134;-66
2022/06/01 10:14:16;;;;;;;3.50;2.00;;;;;;;26.09;41.02;99615.09;4433501;32;33547;-67
2022/06/01 10:16:55;;;;;;;4.93;2.00;;;;;;;26.01;41.51;99620.84;4446234;32;33437;-66
2022/06/01 10:19:29;;;;;;;3.28;2.03;;;;;;;25.95;41.63;99624.44;4447699;32;32483;-66
2022/06/01 10:22:10;;;;;;;5.40;1.83;;;;;;;26.11;40.62;99615.72;4444396;32;35050;-65
2022/06/01 10:25:04;;;;;;;5.80;2.00;;;;;;;26.19;39.28;99622.84;4449651;32;35354;-65
2022/06/01 10:27:37;;;;;;;4.07;2.22;;;;;;;25.81;39.51;99626.41;4437270;32;34789;-66
2022/06/01 10:30:12;;;;;;;4.22;2.05;;;;;;;26.23;39.33;99627.69;4437634;32;33002;-65
2022/06/01 10:32:47;;;;;;;3.92;2.03;;;;;;;26.53;38.87;99626.28;4443024;32;34805;-66
2022/06/01 10:35:38;;;;;;;5.28;2.00;;;;;;;26.96;38.77;99626.34;4448979;32;33778;-66
2022/06/01 10:38:18;;;;;;;5.25;2.28;;;;;;;27.49;38.12;99619.53;4440684;32;33858;-67
2022/06/01 10:41:00;;;;;;;3.55;1.90;;;;;;;27.07;38.23;99627.53;4443189;32;33516;-66
2022/06/01 10:43:54;;;;;;;3.35;1.67;;;;;;;27.23;36.28;99623.41;4448867;32;35081;-65
2022/06/01 10:46:35;;;;;;;2.95;1.90;;;;;;;27.04;36.46;99623.34;4449959;32;32573;-68
2022/06/01 10:49:41;;;;;;;5.62;2.08;;;;;;;27.32;37.00;99622.88;4434490;32;32560;-66
2022/06/01 10:52:34;;;;;;;4.37;2.00;;;;;;;27.53;36.23;99627.09;4443735;32;33497;-66
2022/06/01 10:55:19;;;;;;;4.93;1.60;;;;;;;27.69;34.83;99622.06;4447436;32;33658;-66
2022/06/01 10:57:48;;;;;;;4.55;1.80;;;;;;;27.66;35.36;99626.09;4447146;32;32421;-66
2022/06/01 11:00:21;;;;;;;2.95;1.50;;;;;;;27.22;36.26;99622.53;4447075;32;34744;-66
2022/06/01 11:02:58;;;;;;;3.35;1.75;;;;;;;27.28;35.69;99627.13;4449928;32;34193;-67
2022/06/01 11:05:43;;;;;;;6.55;2.20;;;;;;;27.73;34.79;99615.88;4452159;32;32398;-65
2022/06/01 11:08:20;;;;;;;3.30;1.60;;;;;;;27.96;34.25;99619.84;4449420;32;33794;-66
2022/06/01 11:10:57;;;;;;;2.92;1.42;;;;;;;28.25;34.38;99621.81;4441638;32;35128;-66
2022/06/01 11:13:31;;;;;;;3.90;1.80;;;;;;;28.57;34.10;99624.31;4439041;32;34653;-65
2022/06/01 11:16:02;;;;;;;4.18;1.70;;;;;;;27.19;36.36;99625.75;4445683;32;33355;-64
2022/06/01 11:18:36;;;;;;;2.58;1.50;;;;;;;27.71;34.59;99625.44;4444196;32;33805;-64
2022/06/01 11:21:12;;;;;;;3.80;1.80;;;;;;;27.58;34.65;99610.78;4448416;32;33854;-65
2022/06/01 11:23:45;;;;;;;4.55;1.77;;;;;;;27.48;36.18;99620.59;4446432;32;33284;-64
2022/06/01 11:26:53;;;;;;;7.18;1.73;;;;;;;27.97;35.82;99619.63;4444688;32;33642;-65
2022/06/01 11:29:27;;;;;;;3.42;1.90;;;;;;;27.56;35.33;99625.81;4426253;32;34922;-64
2022/06/01 11:32:02;;;;;;;3.30;1.52;;;;;;;27.78;33.87;99621.56;4447873;32;34926;-66
2022/06/01 11:34:49;;;;;;;3.33;1.90;;;;;;;27.30;35.82;99615.94;4447982;32;34998;-67
2022/06/01 11:37:22;;;;;;;3.08;1.62;;;;;;;26.34;36.45;99619.81;4448087;32;33398;-66
2022/06/01 11:39:57;;;;;;;6.57;1.67;;;;;;;26.96;36.32;99612.59;4448556;32;34835;-67
2022/06/01 11:42:32;;;;;;;3.75;1.60;;;;;;;27.62;34.81;99614.72;4438682;32;33386;-66
2022/06/01 11:45:15;;;;;;;3.58;2.00;;;;;;;27.66;34.45;99608.78;4444894;32;33050;-67
2022/06/01 11:47:51;;;;;;;5.03;1.90;;;;;;;27.54;36.04;99594.94;4441390;32;32376;-66
2022/06/01 11:50:24;;;;;;;5.75;1.60;;;;;;;27.61;35.80;99607.56;4450955;32;34826;-66
2022/06/01 11:53:01;;;;;;;3.22;1.55;;;;;;;27.56;34.88;99601.91;4444290;32;33821;-65
2022/06/01 11:55:35;;;;;;;3.83;1.65;;;;;;;27.29;35.22;99604.09;4441834;32;34312;-65
2022/06/01 11:58:06;;;;;;;4.87;1.70;;;;;;;28.06;33.30;99612.75;4441807;32;34995;-67
2022/06/01 12:00:51;;;;;;;3.03;1.60;;;;;;;27.75;33.74;99607.41;4446544;32;33949;-66
2022/06/01 12:03:19;;;;;;;4.43;1.58;;;;;;;27.75;34.14;99612.91;4439895;32;32787;-65
2022/06/01 12:06:02;;;;;;;3.40;1.77;;;;;;;27.49;34.59;99612.13;4442696;32;32682;-66
2022/06/01 12:08:57;;;;;;;4.80;1.75;;;;;;;27.18;34.90;99608.41;4443193;32;32578;-67
2022/06/01 12:11:38;;;;;;;3.23;1.90;;;;;;;28.00;34.47;99608.16;4441869;32;33803;-65
2022/06/01 12:14:29;;;;;;;3.40;1.70;;;;;;;27.76;34.57;99609.06;4441386;32;35080;-65
2022/06/01 12:17:15;;;;;;;3.65;1.45;;;;;;;27.52;34.56;99597.94;4433275;32;31638;-66